Tekonsha, Michigan
Current Conditions -  °F | °C
As of 6:34 AM on Wednesday 26 Nov 2014 (Local Time) from KRMY Reporting Station
Overcast Overcast  
Wind Chill: 26°   Ceiling: 2000
Heat Index: 26°   Visibility: 10mi
Dew Point: 20°   Wind: 0mph
Humidity: 78%   Direction: NA
Pressure: 30.15"   Gusts: NA
Location:  42.09°N, 84.99°W
Report Text: KRMY 261134Z AUTO 00000KT 10SM OVC020 M03/M07 A3015 RMK AO2 T10351069
Loading
Personal Weather Stations






























Interactive Weather Map New forecast layout! Learn more

10-Day Weather Forecast

Advertisements
Track Severe Weather on mobile